Saint Germain, Wisconsin
Current Conditions -  °F | °C
As of 11:55 PM on Tuesday 21 Oct 2014 (Local Time) from KEGV Reporting Station
Clear Clear  
Wind Chill:   Ceiling: Unl
Heat Index:   Visibility: 10mi
Dew Point: -2°   Wind: 3mph
Humidity: 76%   Direction: 140°SE
Pressure: 30.27"   Gusts: NA
Location:  45.9°N, 89.49°W
Report Text: KEGV 220455Z AUTO 14003KT 10SM CLR 01/M02 A3027 RMK AO2 T00141024
Loading
Personal Weather Stations






























Interactive Weather Map New forecast layout! Learn more

10-Day Weather Forecast

Advertisements
Track Severe Weather on mobile